sensor_id;sensor_type;location;lat;lon;timestamp;P1;durP1;ratioP1;P2;durP2;ratioP2
57291;SDS011;43144;50.972;18.220;2022-09-12T00:00:29;4.30;;;4.00;;
57291;SDS011;43144;50.972;18.220;2022-09-12T00:02:58;5.00;;;4.20;;
57291;SDS011;43144;50.972;18.220;2022-09-12T00:05:26;4.40;;;4.00;;
57291;SDS011;43144;50.972;18.220;2022-09-12T00:07:55;5.40;;;4.30;;
57291;SDS011;43144;50.972;18.220;2022-09-12T00:10:24;4.90;;;4.50;;
57291;SDS011;43144;50.972;18.220;2022-09-12T00:12:52;4.90;;;4.50;;
57291;SDS011;43144;50.972;18.220;2022-09-12T00:15:20;4.30;;;3.90;;
57291;SDS011;43144;50.972;18.220;2022-09-12T00:17:49;4.40;;;4.10;;
57291;SDS011;43144;50.972;18.220;2022-09-12T00:20:17;4.90;;;4.30;;
57291;SDS011;43144;50.972;18.220;2022-09-12T00:22:45;5.10;;;4.40;;
57291;SDS011;43144;50.972;18.220;2022-09-12T00:25:14;4.80;;;4.30;;
57291;SDS011;43144;50.972;18.220;2022-09-12T00:27:42;5.10;;;4.60;;
57291;SDS011;43144;50.972;18.220;2022-09-12T00:30:11;4.70;;;4.30;;
57291;SDS011;43144;50.972;18.220;2022-09-12T00:32:39;4.70;;;4.30;;
57291;SDS011;43144;50.972;18.220;2022-09-12T00:35:07;4.40;;;4.10;;
57291;SDS011;43144;50.972;18.220;2022-09-12T00:37:35;4.60;;;4.20;;
57291;SDS011;43144;50.972;18.220;2022-09-12T00:40:04;5.80;;;4.20;;
57291;SDS011;43144;50.972;18.220;2022-09-12T00:42:32;5.00;;;4.50;;
57291;SDS011;43144;50.972;18.220;2022-09-12T00:45:01;4.80;;;4.30;;
57291;SDS011;43144;50.972;18.220;2022-09-12T00:47:29;4.80;;;4.00;;
57291;SDS011;43144;50.972;18.220;2022-09-12T00:50:00;6.30;;;4.40;;
57291;SDS011;43144;50.972;18.220;2022-09-12T00:52:33;5.10;;;4.20;;
57291;SDS011;43144;50.972;18.220;2022-09-12T00:55:04;4.60;;;4.20;;
57291;SDS011;43144;50.972;18.220;2022-09-12T00:57:34;4.60;;;4.00;;
57291;SDS011;43144;50.972;18.220;2022-09-12T01:00:07;4.40;;;4.00;;
57291;SDS011;43144;50.972;18.220;2022-09-12T01:02:36;4.70;;;4.30;;
57291;SDS011;43144;50.972;18.220;2022-09-12T01:05:06;4.20;;;3.90;;
57291;SDS011;43144;50.972;18.220;2022-09-12T01:07:35;5.00;;;4.00;;
57291;SDS011;43144;50.972;18.220;2022-09-12T01:10:05;4.90;;;4.50;;
57291;SDS011;43144;50.972;18.220;2022-09-12T01:12:34;5.10;;;4.10;;
57291;SDS011;43144;50.972;18.220;2022-09-12T01:15:05;4.70;;;4.20;;
57291;SDS011;43144;50.972;18.220;2022-09-12T01:17:35;4.60;;;4.20;;
57291;SDS011;43144;50.972;18.220;2022-09-12T01:25:54;5.90;;;4.50;;
57291;SDS011;43144;50.972;18.220;2022-09-12T01:28:38;5.30;;;4.80;;
57291;SDS011;43144;50.972;18.220;2022-09-12T01:31:15;5.50;;;5.10;;
57291;SDS011;43144;50.972;18.220;2022-09-12T01:33:49;5.90;;;5.40;;
57291;SDS011;43144;50.972;18.220;2022-09-12T01:36:30;6.90;;;6.00;;
57291;SDS011;43144;50.972;18.220;2022-09-12T01:39:03;7.30;;;6.70;;
57291;SDS011;43144;50.972;18.220;2022-09-12T01:41:37;6.90;;;6.20;;
57291;SDS011;43144;50.972;18.220;2022-09-12T01:44:12;6.10;;;5.70;;
57291;SDS011;43144;50.972;18.220;2022-09-12T01:46:45;6.00;;;5.50;;
57291;SDS011;43144;50.972;18.220;2022-09-12T01:49:14;5.70;;;5.20;;
57291;SDS011;43144;50.972;18.220;2022-09-12T01:51:47;6.40;;;5.60;;
57291;SDS011;43144;50.972;18.220;2022-09-12T01:54:23;6.90;;;6.10;;
57291;SDS011;43144;50.972;18.220;2022-09-12T01:56:55;6.70;;;6.20;;
57291;SDS011;43144;50.972;18.220;2022-09-12T01:59:27;6.90;;;6.30;;
57291;SDS011;43144;50.972;18.220;2022-09-12T02:01:59;6.80;;;6.20;;
57291;SDS011;43144;50.972;18.220;2022-09-12T02:04:30;7.70;;;6.60;;
57291;SDS011;43144;50.972;18.220;2022-09-12T02:07:00;7.60;;;6.90;;
57291;SDS011;43144;50.972;18.220;2022-09-12T02:09:33;8.00;;;7.20;;
57291;SDS011;43144;50.972;18.220;2022-09-12T02:12:04;8.30;;;7.60;;
57291;SDS011;43144;50.972;18.220;2022-09-12T02:14:35;8.10;;;7.40;;
57291;SDS011;43144;50.972;18.220;2022-09-12T02:17:06;8.50;;;7.70;;
57291;SDS011;43144;50.972;18.220;2022-09-12T02:19:38;8.60;;;7.80;;
57291;SDS011;43144;50.972;18.220;2022-09-12T02:22:09;11.20;;;10.30;;
57291;SDS011;43144;50.972;18.220;2022-09-12T02:24:41;12.40;;;11.30;;
57291;SDS011;43144;50.972;18.220;2022-09-12T02:27:13;14.70;;;13.40;;
57291;SDS011;43144;50.972;18.220;2022-09-12T02:29:42;14.20;;;13.20;;
57291;SDS011;43144;50.972;18.220;2022-09-12T02:32:14;13.30;;;12.30;;
57291;SDS011;43144;50.972;18.220;2022-09-12T02:34:50;12.60;;;11.60;;
57291;SDS011;43144;50.972;18.220;2022-09-12T02:37:22;13.00;;;11.90;;
57291;SDS011;43144;50.972;18.220;2022-09-12T02:39:55;11.50;;;10.40;;
57291;SDS011;43144;50.972;18.220;2022-09-12T02:42:24;10.10;;;9.40;;
57291;SDS011;43144;50.972;18.220;2022-09-12T02:44:53;9.90;;;8.90;;
57291;SDS011;43144;50.972;18.220;2022-09-12T02:47:24;8.20;;;7.30;;
57291;SDS011;43144;50.972;18.220;2022-09-12T02:49:54;7.00;;;6.40;;
57291;SDS011;43144;50.972;18.220;2022-09-12T02:52:23;6.50;;;6.00;;
57291;SDS011;43144;50.972;18.220;2022-09-12T02:54:52;7.60;;;7.00;;
57291;SDS011;43144;50.972;18.220;2022-09-12T02:57:21;7.60;;;6.90;;
57291;SDS011;43144;50.972;18.220;2022-09-12T02:59:49;7.40;;;6.70;;
57291;SDS011;43144;50.972;18.220;2022-09-12T03:02:25;6.40;;;5.80;;
57291;SDS011;43144;50.972;18.220;2022-09-12T03:05:01;7.50;;;5.80;;
57291;SDS011;43144;50.972;18.220;2022-09-12T03:07:45;6.00;;;5.40;;
57291;SDS011;43144;50.972;18.220;2022-09-12T03:10:26;7.60;;;5.60;;
57291;SDS011;43144;50.972;18.220;2022-09-12T03:13:04;6.30;;;5.80;;
57291;SDS011;43144;50.972;18.220;2022-09-12T03:15:42;6.70;;;5.90;;
57291;SDS011;43144;50.972;18.220;2022-09-12T03:18:19;5.90;;;5.40;;
57291;SDS011;43144;50.972;18.220;2022-09-12T03:20:55;6.00;;;5.20;;
57291;SDS011;43144;50.972;18.220;2022-09-12T03:23:30;6.30;;;5.70;;
57291;SDS011;43144;50.972;18.220;2022-09-12T03:26:04;6.70;;;6.10;;
57291;SDS011;43144;50.972;18.220;2022-09-12T03:28:35;6.50;;;6.00;;
57291;SDS011;43144;50.972;18.220;2022-09-12T03:31:11;7.40;;;5.40;;
57291;SDS011;43144;50.972;18.220;2022-09-12T03:33:40;6.90;;;5.50;;
57291;SDS011;43144;50.972;18.220;2022-09-12T03:36:11;6.70;;;5.50;;
57291;SDS011;43144;50.972;18.220;2022-09-12T03:38:42;6.00;;;5.40;;
57291;SDS011;43144;50.972;18.220;2022-09-12T03:41:11;6.40;;;5.80;;
57291;SDS011;43144;50.972;18.220;2022-09-12T03:43:39;6.20;;;5.60;;
57291;SDS011;43144;50.972;18.220;2022-09-12T03:46:07;7.10;;;5.00;;
57291;SDS011;43144;50.972;18.220;2022-09-12T03:48:35;5.20;;;4.70;;
57291;SDS011;43144;50.972;18.220;2022-09-12T03:51:05;5.20;;;4.80;;
57291;SDS011;43144;50.972;18.220;2022-09-12T03:53:34;5.20;;;4.60;;
57291;SDS011;43144;50.972;18.220;2022-09-12T03:56:05;5.90;;;5.20;;
57291;SDS011;43144;50.972;18.220;2022-09-12T03:58:35;5.30;;;4.80;;
57291;SDS011;43144;50.972;18.220;2022-09-12T04:01:07;5.20;;;4.70;;
57291;SDS011;43144;50.972;18.220;2022-09-12T04:03:35;10.80;;;4.90;;
57291;SDS011;43144;50.972;18.220;2022-09-12T04:06:04;6.30;;;4.40;;
57291;SDS011;43144;50.972;18.220;2022-09-12T04:08:32;4.60;;;4.20;;
57291;SDS011;43144;50.972;18.220;2022-09-12T04:11:03;5.70;;;4.40;;
57291;SDS011;43144;50.972;18.220;2022-09-12T04:13:33;5.10;;;4.60;;
57291;SDS011;43144;50.972;18.220;2022-09-12T04:16:03;5.60;;;4.80;;
57291;SDS011;43144;50.972;18.220;2022-09-12T04:18:32;5.80;;;4.70;;
57291;SDS011;43144;50.972;18.220;2022-09-12T04:21:03;5.10;;;4.70;;
57291;SDS011;43144;50.972;18.220;2022-09-12T04:23:32;7.40;;;4.70;;
57291;SDS011;43144;50.972;18.220;2022-09-12T04:26:01;5.20;;;4.70;;
57291;SDS011;43144;50.972;18.220;2022-09-12T04:28:30;7.00;;;4.70;;
57291;SDS011;43144;50.972;18.220;2022-09-12T04:31:01;8.00;;;4.50;;
57291;SDS011;43144;50.972;18.220;2022-09-12T04:33:31;4.80;;;4.40;;
57291;SDS011;43144;50.972;18.220;2022-09-12T04:36:03;7.50;;;5.20;;
57291;SDS011;43144;50.972;18.220;2022-09-12T04:38:32;6.20;;;4.70;;
57291;SDS011;43144;50.972;18.220;2022-09-12T04:41:06;5.10;;;4.60;;
57291;SDS011;43144;50.972;18.220;2022-09-12T04:43:37;5.40;;;4.80;;
57291;SDS011;43144;50.972;18.220;2022-09-12T04:46:06;5.30;;;4.60;;
57291;SDS011;43144;50.972;18.220;2022-09-12T04:48:36;5.30;;;4.60;;
57291;SDS011;43144;50.972;18.220;2022-09-12T04:51:09;5.30;;;4.80;;
57291;SDS011;43144;50.972;18.220;2022-09-12T04:53:39;6.30;;;4.70;;
57291;SDS011;43144;50.972;18.220;2022-09-12T04:56:08;5.40;;;4.80;;
57291;SDS011;43144;50.972;18.220;2022-09-12T04:58:37;5.90;;;4.60;;
57291;SDS011;43144;50.972;18.220;2022-09-12T05:01:06;5.10;;;4.60;;
57291;SDS011;43144;50.972;18.220;2022-09-12T05:03:36;5.50;;;4.70;;
57291;SDS011;43144;50.972;18.220;2022-09-12T05:06:06;6.30;;;4.90;;
57291;SDS011;43144;50.972;18.220;2022-09-12T05:08:36;5.50;;;5.00;;
57291;SDS011;43144;50.972;18.220;2022-09-12T05:11:05;6.20;;;4.60;;
57291;SDS011;43144;50.972;18.220;2022-09-12T05:13:34;5.60;;;4.40;;
57291;SDS011;43144;50.972;18.220;2022-09-12T05:16:03;5.80;;;5.00;;
57291;SDS011;43144;50.972;18.220;2022-09-12T05:18:32;7.10;;;5.00;;
57291;SDS011;43144;50.972;18.220;2022-09-12T05:21:02;6.10;;;4.70;;
57291;SDS011;43144;50.972;18.220;2022-09-12T05:23:32;6.20;;;5.10;;
57291;SDS011;43144;50.972;18.220;2022-09-12T05:26:00;6.40;;;4.90;;
57291;SDS011;43144;50.972;18.220;2022-09-12T05:28:31;5.10;;;4.60;;
57291;SDS011;43144;50.972;18.220;2022-09-12T05:31:02;6.80;;;5.10;;
57291;SDS011;43144;50.972;18.220;2022-09-12T05:33:31;6.30;;;4.90;;
57291;SDS011;43144;50.972;18.220;2022-09-12T05:36:02;6.90;;;4.90;;
57291;SDS011;43144;50.972;18.220;2022-09-12T05:38:32;5.00;;;4.50;;
57291;SDS011;43144;50.972;18.220;2022-09-12T05:41:03;12.70;;;11.30;;
57291;SDS011;43144;50.972;18.220;2022-09-12T05:43:32;7.70;;;5.30;;
57291;SDS011;43144;50.972;18.220;2022-09-12T05:46:01;6.40;;;5.40;;
57291;SDS011;43144;50.972;18.220;2022-09-12T05:48:31;5.20;;;4.70;;
57291;SDS011;43144;50.972;18.220;2022-09-12T05:51:00;5.20;;;4.30;;
57291;SDS011;43144;50.972;18.220;2022-09-12T05:53:30;5.50;;;4.70;;
57291;SDS011;43144;50.972;18.220;2022-09-12T05:56:02;5.20;;;4.70;;
57291;SDS011;43144;50.972;18.220;2022-09-12T05:58:32;6.30;;;4.40;;
57291;SDS011;43144;50.972;18.220;2022-09-12T06:01:02;5.30;;;4.80;;
57291;SDS011;43144;50.972;18.220;2022-09-12T06:03:32;5.00;;;4.50;;
57291;SDS011;43144;50.972;18.220;2022-09-12T06:06:04;5.90;;;5.10;;
57291;SDS011;43144;50.972;18.220;2022-09-12T06:08:33;6.90;;;4.40;;
57291;SDS011;43144;50.972;18.220;2022-09-12T06:11:02;4.50;;;4.10;;
57291;SDS011;43144;50.972;18.220;2022-09-12T06:13:32;9.70;;;4.10;;
57291;SDS011;43144;50.972;18.220;2022-09-12T06:16:04;5.60;;;4.60;;
57291;SDS011;43144;50.972;18.220;2022-09-12T06:21:02;5.10;;;4.30;;
57291;SDS011;43144;50.972;18.220;2022-09-12T06:23:31;4.50;;;4.20;;
57291;SDS011;43144;50.972;18.220;2022-09-12T06:26:00;4.40;;;3.90;;
57291;SDS011;43144;50.972;18.220;2022-09-12T06:28:29;8.80;;;4.40;;
57291;SDS011;43144;50.972;18.220;2022-09-12T06:31:04;4.70;;;4.10;;
57291;SDS011;43144;50.972;18.220;2022-09-12T06:33:34;4.00;;;3.60;;
57291;SDS011;43144;50.972;18.220;2022-09-12T06:36:04;5.70;;;3.70;;
57291;SDS011;43144;50.972;18.220;2022-09-12T06:38:35;4.20;;;3.80;;
57291;SDS011;43144;50.972;18.220;2022-09-12T06:41:04;7.40;;;3.80;;
57291;SDS011;43144;50.972;18.220;2022-09-12T06:43:33;5.50;;;3.60;;
57291;SDS011;43144;50.972;18.220;2022-09-12T06:46:02;4.00;;;3.50;;
57291;SDS011;43144;50.972;18.220;2022-09-12T06:48:31;4.10;;;3.70;;
57291;SDS011;43144;50.972;18.220;2022-09-12T06:51:00;6.20;;;4.00;;
57291;SDS011;43144;50.972;18.220;2022-09-12T06:53:30;7.30;;;4.00;;
57291;SDS011;43144;50.972;18.220;2022-09-12T06:56:00;4.40;;;3.60;;
57291;SDS011;43144;50.972;18.220;2022-09-12T06:58:30;4.90;;;3.50;;
57291;SDS011;43144;50.972;18.220;2022-09-12T07:01:02;4.40;;;3.50;;
57291;SDS011;43144;50.972;18.220;2022-09-12T07:03:33;5.50;;;3.90;;
57291;SDS011;43144;50.972;18.220;2022-09-12T07:06:03;5.40;;;3.30;;
57291;SDS011;43144;50.972;18.220;2022-09-12T07:08:32;6.90;;;3.20;;
57291;SDS011;43144;50.972;18.220;2022-09-12T07:11:08;4.50;;;3.00;;
57291;SDS011;43144;50.972;18.220;2022-09-12T07:13:37;4.80;;;3.10;;
57291;SDS011;43144;50.972;18.220;2022-09-12T07:16:06;5.60;;;3.40;;
57291;SDS011;43144;50.972;18.220;2022-09-12T07:18:35;4.70;;;3.00;;
57291;SDS011;43144;50.972;18.220;2022-09-12T07:21:06;9.60;;;3.20;;
57291;SDS011;43144;50.972;18.220;2022-09-12T07:23:36;5.90;;;3.00;;
57291;SDS011;43144;50.972;18.220;2022-09-12T07:26:05;6.40;;;3.80;;
57291;SDS011;43144;50.972;18.220;2022-09-12T07:28:34;4.90;;;3.40;;
57291;SDS011;43144;50.972;18.220;2022-09-12T07:31:06;6.70;;;2.90;;
57291;SDS011;43144;50.972;18.220;2022-09-12T07:33:35;3.40;;;2.90;;
57291;SDS011;43144;50.972;18.220;2022-09-12T07:36:05;4.00;;;3.40;;
57291;SDS011;43144;50.972;18.220;2022-09-12T07:38:34;5.80;;;3.00;;
57291;SDS011;43144;50.972;18.220;2022-09-12T07:41:09;6.30;;;2.70;;
57291;SDS011;43144;50.972;18.220;2022-09-12T07:43:38;4.70;;;2.80;;
57291;SDS011;43144;50.972;18.220;2022-09-12T07:46:07;3.60;;;2.70;;
57291;SDS011;43144;50.972;18.220;2022-09-12T07:48:35;3.80;;;3.50;;
57291;SDS011;43144;50.972;18.220;2022-09-12T07:51:05;5.40;;;3.70;;
57291;SDS011;43144;50.972;18.220;2022-09-12T07:53:34;3.40;;;2.60;;
57291;SDS011;43144;50.972;18.220;2022-09-12T07:56:04;4.90;;;2.70;;
57291;SDS011;43144;50.972;18.220;2022-09-12T07:58:34;4.20;;;2.80;;
57291;SDS011;43144;50.972;18.220;2022-09-12T08:01:04;3.10;;;2.80;;
57291;SDS011;43144;50.972;18.220;2022-09-12T08:03:33;4.40;;;2.90;;
57291;SDS011;43144;50.972;18.220;2022-09-12T08:06:04;5.10;;;2.90;;
57291;SDS011;43144;50.972;18.220;2022-09-12T08:08:33;3.50;;;2.90;;
57291;SDS011;43144;50.972;18.220;2022-09-12T08:11:02;4.30;;;2.50;;
57291;SDS011;43144;50.972;18.220;2022-09-12T08:13:32;3.60;;;2.40;;
57291;SDS011;43144;50.972;18.220;2022-09-12T08:16:02;4.20;;;2.80;;
57291;SDS011;43144;50.972;18.220;2022-09-12T08:18:33;3.40;;;3.00;;
57291;SDS011;43144;50.972;18.220;2022-09-12T08:21:03;5.20;;;2.60;;
57291;SDS011;43144;50.972;18.220;2022-09-12T08:23:33;3.10;;;2.80;;
57291;SDS011;43144;50.972;18.220;2022-09-12T08:26:02;4.80;;;2.90;;
57291;SDS011;43144;50.972;18.220;2022-09-12T08:28:31;4.00;;;2.70;;
57291;SDS011;43144;50.972;18.220;2022-09-12T08:31:01;5.70;;;2.80;;
57291;SDS011;43144;50.972;18.220;2022-09-12T08:33:31;3.30;;;2.30;;
57291;SDS011;43144;50.972;18.220;2022-09-12T08:36:03;3.30;;;2.70;;
57291;SDS011;43144;50.972;18.220;2022-09-12T08:38:33;3.40;;;2.80;;
57291;SDS011;43144;50.972;18.220;2022-09-12T08:41:05;7.90;;;3.40;;
57291;SDS011;43144;50.972;18.220;2022-09-12T08:43:42;3.70;;;2.60;;
57291;SDS011;43144;50.972;18.220;2022-09-12T08:46:18;3.60;;;2.80;;
57291;SDS011;43144;50.972;18.220;2022-09-12T08:48:50;3.70;;;2.60;;
57291;SDS011;43144;50.972;18.220;2022-09-12T08:51:18;3.20;;;2.90;;
57291;SDS011;43144;50.972;18.220;2022-09-12T08:53:48;4.70;;;3.00;;
57291;SDS011;43144;50.972;18.220;2022-09-12T08:56:17;4.50;;;3.30;;
57291;SDS011;43144;50.972;18.220;2022-09-12T08:58:46;3.30;;;2.60;;
57291;SDS011;43144;50.972;18.220;2022-09-12T09:01:16;3.70;;;2.40;;
57291;SDS011;43144;50.972;18.220;2022-09-12T09:03:54;4.50;;;3.00;;
57291;SDS011;43144;50.972;18.220;2022-09-12T09:06:38;3.00;;;2.60;;
57291;SDS011;43144;50.972;18.220;2022-09-12T09:09:17;2.90;;;2.20;;
57291;SDS011;43144;50.972;18.220;2022-09-12T09:11:53;3.40;;;2.40;;
57291;SDS011;43144;50.972;18.220;2022-09-12T09:17:08;3.10;;;2.60;;
57291;SDS011;43144;50.972;18.220;2022-09-12T09:19:39;3.80;;;2.80;;
57291;SDS011;43144;50.972;18.220;2022-09-12T09:22:11;6.10;;;2.90;;
57291;SDS011;43144;50.972;18.220;2022-09-12T09:24:42;6.50;;;3.00;;
57291;SDS011;43144;50.972;18.220;2022-09-12T09:27:16;4.00;;;2.80;;
57291;SDS011;43144;50.972;18.220;2022-09-12T09:29:49;4.90;;;2.80;;
57291;SDS011;43144;50.972;18.220;2022-09-12T09:32:22;4.50;;;2.80;;
57291;SDS011;43144;50.972;18.220;2022-09-12T09:34:53;2.80;;;2.30;;
57291;SDS011;43144;50.972;18.220;2022-09-12T09:37:24;5.50;;;2.80;;
57291;SDS011;43144;50.972;18.220;2022-09-12T09:39:59;3.40;;;2.50;;
57291;SDS011;43144;50.972;18.220;2022-09-12T09:42:33;5.40;;;2.60;;
57291;SDS011;43144;50.972;18.220;2022-09-12T09:45:12;2.90;;;2.50;;
57291;SDS011;43144;50.972;18.220;2022-09-12T09:47:42;4.50;;;3.10;;
57291;SDS011;43144;50.972;18.220;2022-09-12T09:50:14;2.60;;;2.40;;
57291;SDS011;43144;50.972;18.220;2022-09-12T09:52:43;4.70;;;2.60;;
57291;SDS011;43144;50.972;18.220;2022-09-12T09:55:13;4.50;;;2.60;;
57291;SDS011;43144;50.972;18.220;2022-09-12T09:57:47;5.50;;;2.40;;
57291;SDS011;43144;50.972;18.220;2022-09-12T10:00:24;6.30;;;2.60;;
57291;SDS011;43144;50.972;18.220;2022-09-12T10:03:02;3.10;;;2.10;;
57291;SDS011;43144;50.972;18.220;2022-09-12T10:05:33;5.60;;;2.60;;
57291;SDS011;43144;50.972;18.220;2022-09-12T10:08:02;4.50;;;2.60;;
57291;SDS011;43144;50.972;18.220;2022-09-12T10:10:33;4.40;;;2.40;;
57291;SDS011;43144;50.972;18.220;2022-09-12T10:13:12;6.50;;;2.80;;
57291;SDS011;43144;50.972;18.220;2022-09-12T10:15:56;5.20;;;2.30;;
57291;SDS011;43144;50.972;18.220;2022-09-12T10:18:36;3.50;;;1.90;;
57291;SDS011;43144;50.972;18.220;2022-09-12T10:21:12;3.30;;;2.70;;
57291;SDS011;43144;50.972;18.220;2022-09-12T10:23:43;2.50;;;2.30;;
57291;SDS011;43144;50.972;18.220;2022-09-12T10:26:14;3.40;;;2.30;;
57291;SDS011;43144;50.972;18.220;2022-09-12T10:28:43;4.80;;;2.50;;
57291;SDS011;43144;50.972;18.220;2022-09-12T10:31:14;3.70;;;2.20;;
57291;SDS011;43144;50.972;18.220;2022-09-12T10:33:49;2.80;;;2.30;;
57291;SDS011;43144;50.972;18.220;2022-09-12T10:36:17;3.80;;;2.30;;
57291;SDS011;43144;50.972;18.220;2022-09-12T10:38:49;4.00;;;2.20;;
57291;SDS011;43144;50.972;18.220;2022-09-12T10:41:18;4.70;;;2.70;;
57291;SDS011;43144;50.972;18.220;2022-09-12T10:43:47;3.30;;;2.70;;
57291;SDS011;43144;50.972;18.220;2022-09-12T10:46:26;3.10;;;2.80;;
57291;SDS011;43144;50.972;18.220;2022-09-12T10:51:44;3.10;;;2.80;;
57291;SDS011;43144;50.972;18.220;2022-09-12T10:54:14;3.50;;;2.50;;
57291;SDS011;43144;50.972;18.220;2022-09-12T10:56:45;2.70;;;2.50;;
57291;SDS011;43144;50.972;18.220;2022-09-12T10:59:31;3.30;;;2.80;;
57291;SDS011;43144;50.972;18.220;2022-09-12T11:02:10;3.10;;;2.00;;
57291;SDS011;43144;50.972;18.220;2022-09-12T11:04:47;3.20;;;2.20;;
57291;SDS011;43144;50.972;18.220;2022-09-12T11:07:25;3.80;;;2.60;;
57291;SDS011;43144;50.972;18.220;2022-09-12T11:10:04;5.90;;;2.40;;
57291;SDS011;43144;50.972;18.220;2022-09-12T11:12:45;4.10;;;2.30;;
57291;SDS011;43144;50.972;18.220;2022-09-12T11:15:28;3.00;;;2.10;;
57291;SDS011;43144;50.972;18.220;2022-09-12T11:18:02;3.70;;;2.80;;
57291;SDS011;43144;50.972;18.220;2022-09-12T11:20:42;4.00;;;2.20;;
57291;SDS011;43144;50.972;18.220;2022-09-12T11:26:05;5.70;;;2.40;;
57291;SDS011;43144;50.972;18.220;2022-09-12T11:28:42;4.50;;;2.50;;
57291;SDS011;43144;50.972;18.220;2022-09-12T11:31:21;3.80;;;2.30;;
57291;SDS011;43144;50.972;18.220;2022-09-12T11:33:57;4.20;;;2.20;;
57291;SDS011;43144;50.972;18.220;2022-09-12T11:36:31;6.20;;;2.60;;
57291;SDS011;43144;50.972;18.220;2022-09-12T11:39:02;4.70;;;2.50;;
57291;SDS011;43144;50.972;18.220;2022-09-12T11:41:38;4.50;;;2.70;;
57291;SDS011;43144;50.972;18.220;2022-09-12T11:44:11;4.10;;;2.80;;
57291;SDS011;43144;50.972;18.220;2022-09-12T11:46:43;4.50;;;2.90;;
57291;SDS011;43144;50.972;18.220;2022-09-12T11:49:17;5.20;;;2.50;;
57291;SDS011;43144;50.972;18.220;2022-09-12T11:51:49;3.60;;;2.30;;
57291;SDS011;43144;50.972;18.220;2022-09-12T11:54:21;3.50;;;2.20;;
57291;SDS011;43144;50.972;18.220;2022-09-12T11:59:25;3.80;;;2.30;;
57291;SDS011;43144;50.972;18.220;2022-09-12T12:01:58;3.80;;;2.50;;
57291;SDS011;43144;50.972;18.220;2022-09-12T12:04:31;3.60;;;2.20;;
57291;SDS011;43144;50.972;18.220;2022-09-12T12:07:03;3.50;;;3.20;;
57291;SDS011;43144;50.972;18.220;2022-09-12T12:09:33;2.50;;;2.30;;
57291;SDS011;43144;50.972;18.220;2022-09-12T12:12:03;2.80;;;2.20;;
57291;SDS011;43144;50.972;18.220;2022-09-12T12:14:35;2.20;;;1.90;;
57291;SDS011;43144;50.972;18.220;2022-09-12T12:17:12;2.50;;;1.90;;
57291;SDS011;43144;50.972;18.220;2022-09-12T12:19:42;3.20;;;2.60;;
57291;SDS011;43144;50.972;18.220;2022-09-12T12:22:15;2.80;;;2.10;;
57291;SDS011;43144;50.972;18.220;2022-09-12T12:33:06;2.40;;;2.10;;
57291;SDS011;43144;50.972;18.220;2022-09-12T12:36:08;2.40;;;2.20;;
57291;SDS011;43144;50.972;18.220;2022-09-12T12:38:37;4.50;;;2.70;;
57291;SDS011;43144;50.972;18.220;2022-09-12T12:43:52;4.70;;;3.00;;
57291;SDS011;43144;50.972;18.220;2022-09-12T12:46:21;2.40;;;2.20;;
57291;SDS011;43144;50.972;18.220;2022-09-12T12:48:50;4.10;;;2.60;;
57291;SDS011;43144;50.972;18.220;2022-09-12T12:51:25;4.10;;;2.60;;
57291;SDS011;43144;50.972;18.220;2022-09-12T12:53:59;2.50;;;2.30;;
57291;SDS011;43144;50.972;18.220;2022-09-12T12:56:33;2.30;;;2.00;;
57291;SDS011;43144;50.972;18.220;2022-09-12T12:59:05;4.60;;;3.20;;
57291;SDS011;43144;50.972;18.220;2022-09-12T13:01:44;2.60;;;2.20;;
57291;SDS011;43144;50.972;18.220;2022-09-12T13:04:15;3.00;;;2.00;;
57291;SDS011;43144;50.972;18.220;2022-09-12T13:06:45;2.50;;;2.20;;
57291;SDS011;43144;50.972;18.220;2022-09-12T13:09:21;2.20;;;2.00;;
57291;SDS011;43144;50.972;18.220;2022-09-12T13:11:56;3.50;;;2.40;;
57291;SDS011;43144;50.972;18.220;2022-09-12T13:14:36;2.90;;;2.70;;
57291;SDS011;43144;50.972;18.220;2022-09-12T13:17:17;2.90;;;2.00;;
57291;SDS011;43144;50.972;18.220;2022-09-12T13:19:51;3.80;;;3.30;;
57291;SDS011;43144;50.972;18.220;2022-09-12T13:22:33;3.40;;;3.10;;
57291;SDS011;43144;50.972;18.220;2022-09-12T13:25:15;3.00;;;2.00;;
57291;SDS011;43144;50.972;18.220;2022-09-12T13:27:56;2.30;;;1.80;;
57291;SDS011;43144;50.972;18.220;2022-09-12T13:30:26;4.50;;;2.60;;
57291;SDS011;43144;50.972;18.220;2022-09-12T13:32:55;4.60;;;2.00;;
57291;SDS011;43144;50.972;18.220;2022-09-12T13:35:31;4.70;;;2.50;;
57291;SDS011;43144;50.972;18.220;2022-09-12T13:38:09;4.10;;;2.20;;
57291;SDS011;43144;50.972;18.220;2022-09-12T13:40:44;2.10;;;1.80;;
57291;SDS011;43144;50.972;18.220;2022-09-12T13:43:20;3.10;;;1.80;;
57291;SDS011;43144;50.972;18.220;2022-09-12T13:45:52;4.30;;;2.00;;
57291;SDS011;43144;50.972;18.220;2022-09-12T13:48:21;3.60;;;2.40;;
57291;SDS011;43144;50.972;18.220;2022-09-12T13:50:51;5.30;;;2.90;;
57291;SDS011;43144;50.972;18.220;2022-09-12T13:53:21;5.50;;;3.20;;
57291;SDS011;43144;50.972;18.220;2022-09-12T13:55:51;2.10;;;1.80;;
57291;SDS011;43144;50.972;18.220;2022-09-12T13:58:21;3.30;;;1.60;;
57291;SDS011;43144;50.972;18.220;2022-09-12T14:03:29;3.50;;;2.00;;
57291;SDS011;43144;50.972;18.220;2022-09-12T14:05:58;4.10;;;1.60;;
57291;SDS011;43144;50.972;18.220;2022-09-12T14:08:26;2.80;;;2.00;;
57291;SDS011;43144;50.972;18.220;2022-09-12T14:10:55;2.50;;;1.90;;
57291;SDS011;43144;50.972;18.220;2022-09-12T14:13:24;3.10;;;2.20;;
57291;SDS011;43144;50.972;18.220;2022-09-12T14:15:53;2.70;;;2.20;;
57291;SDS011;43144;50.972;18.220;2022-09-12T14:18:24;2.80;;;2.00;;
57291;SDS011;43144;50.972;18.220;2022-09-12T14:20:54;2.50;;;1.90;;
57291;SDS011;43144;50.972;18.220;2022-09-12T14:23:25;2.60;;;1.90;;
57291;SDS011;43144;50.972;18.220;2022-09-12T14:25:55;4.40;;;2.50;;
57291;SDS011;43144;50.972;18.220;2022-09-12T14:28:26;2.70;;;2.00;;
57291;SDS011;43144;50.972;18.220;2022-09-12T14:30:57;3.00;;;2.20;;
57291;SDS011;43144;50.972;18.220;2022-09-12T14:33:27;3.30;;;2.10;;
57291;SDS011;43144;50.972;18.220;2022-09-12T14:36:07;2.80;;;1.90;;
57291;SDS011;43144;50.972;18.220;2022-09-12T14:38:39;4.20;;;2.10;;
57291;SDS011;43144;50.972;18.220;2022-09-12T14:41:09;3.00;;;2.20;;
57291;SDS011;43144;50.972;18.220;2022-09-12T14:43:38;2.00;;;1.80;;
57291;SDS011;43144;50.972;18.220;2022-09-12T14:46:16;4.20;;;2.30;;
57291;SDS011;43144;50.972;18.220;2022-09-12T14:48:47;3.10;;;2.00;;
57291;SDS011;43144;50.972;18.220;2022-09-12T14:51:18;3.80;;;2.00;;
57291;SDS011;43144;50.972;18.220;2022-09-12T14:53:48;3.80;;;2.50;;
57291;SDS011;43144;50.972;18.220;2022-09-12T14:56:16;3.20;;;2.10;;
57291;SDS011;43144;50.972;18.220;2022-09-12T14:58:47;3.10;;;2.20;;
57291;SDS011;43144;50.972;18.220;2022-09-12T15:01:24;5.40;;;2.10;;
57291;SDS011;43144;50.972;18.220;2022-09-12T15:03:57;3.00;;;2.00;;
57291;SDS011;43144;50.972;18.220;2022-09-12T15:06:28;2.50;;;2.20;;
57291;SDS011;43144;50.972;18.220;2022-09-12T15:08:58;3.90;;;2.20;;
57291;SDS011;43144;50.972;18.220;2022-09-12T15:11:28;3.90;;;2.40;;
57291;SDS011;43144;50.972;18.220;2022-09-12T15:13:56;2.10;;;1.90;;
57291;SDS011;43144;50.972;18.220;2022-09-12T15:16:24;4.30;;;2.10;;
57291;SDS011;43144;50.972;18.220;2022-09-12T15:18:52;3.50;;;2.30;;
57291;SDS011;43144;50.972;18.220;2022-09-12T15:21:20;3.00;;;1.90;;
57291;SDS011;43144;50.972;18.220;2022-09-12T15:23:49;3.90;;;1.90;;
57291;SDS011;43144;50.972;18.220;2022-09-12T15:26:18;1.90;;;1.70;;
57291;SDS011;43144;50.972;18.220;2022-09-12T15:28:47;2.00;;;1.80;;
57291;SDS011;43144;50.972;18.220;2022-09-12T15:31:18;2.80;;;1.80;;